Time;durP1;ratioP1;P1;durP2;ratioP2;P2;SDS_P1;SDS_P2;PMS_P1;PMS_P2;Temp;Humidity;BMP_temperature;BMP_pressure;BME280_temperature;BME280_humidity;BME280_pressure;Samples;Min_cycle;Max_cycle;Signal;HPM_P1;HPM_P2
2021/05/07 00:01:26;;;;;;;9.60;7.00;;;;;;;14.63;100.00;101177.16;5111556;28;20232;-73
2021/05/07 00:03:51;;;;;;;10.53;8.13;;;;;;;14.51;100.00;101175.44;5112737;28;20163;-74
2021/05/07 00:06:17;;;;;;;13.57;8.13;;;;;;;14.64;100.00;101176.19;5112711;28;20186;-75
2021/05/07 00:08:43;;;;;;;10.73;7.80;;;;;;;14.58;100.00;101184.59;5111149;28;20346;-76
2021/05/07 00:11:11;;;;;;;12.30;7.57;;;;;;;14.58;100.00;101187.22;5112729;28;20167;-76
2021/05/07 00:13:37;;;;;;;14.60;9.00;;;;;;;14.67;100.00;101184.75;5112852;28;20772;-75
2021/05/07 00:16:03;;;;;;;13.57;9.20;;;;;;;14.71;100.00;101190.63;5112731;28;20526;-75
2021/05/07 00:18:29;;;;;;;16.60;10.57;;;;;;;14.71;100.00;101188.81;5112557;28;20389;-74
2021/05/07 00:20:55;;;;;;;15.97;9.70;;;;;;;14.85;100.00;101185.13;5112443;28;20479;-71
2021/05/07 00:23:20;;;;;;;14.13;10.20;;;;;;;14.79;100.00;101193.50;5111286;28;20174;-74
2021/05/07 00:25:49;;;;;;;14.93;9.43;;;;;;;14.66;100.00;101191.00;5111218;28;20164;-75
2021/05/07 00:28:16;;;;;;;12.37;9.57;;;;;;;14.64;100.00;101186.75;5112137;28;20260;-74
2021/05/07 00:30:42;;;;;;;12.70;8.60;;;;;;;14.69;100.00;101184.63;5112340;28;20488;-74
2021/05/07 00:33:08;;;;;;;14.50;10.47;;;;;;;14.76;100.00;101190.28;5112602;28;20405;-73
2021/05/07 00:35:35;;;;;;;14.97;9.30;;;;;;;14.74;100.00;101197.50;5111124;28;20632;-76
2021/05/07 00:38:00;;;;;;;16.13;9.20;;;;;;;14.71;100.00;101194.09;5110966;28;20411;-76
2021/05/07 00:40:26;;;;;;;11.57;8.77;;;;;;;14.92;100.00;101190.78;5112263;28;20397;-74
2021/05/07 00:42:52;;;;;;;19.23;9.20;;;;;;;14.95;100.00;101199.31;5112308;28;20163;-76
2021/05/07 00:45:19;;;;;;;14.90;9.80;;;;;;;14.98;100.00;101204.38;5112009;28;20246;-73
2021/05/07 00:47:50;;;;;;;18.93;10.00;;;;;;;15.05;100.00;101199.44;5112002;28;20843;-75
2021/05/07 00:50:17;;;;;;;11.47;7.93;;;;;;;15.07;100.00;101197.50;5111975;28;20397;-75
2021/05/07 00:52:43;;;;;;;16.73;9.60;;;;;;;15.02;100.00;101197.03;5111989;28;20404;-74
2021/05/07 00:55:10;;;;;;;11.57;8.50;;;;;;;15.07;100.00;101207.25;5112294;28;20412;-74
2021/05/07 00:57:37;;;;;;;11.20;8.37;;;;;;;15.13;100.00;101199.69;5111757;27;20177;-74
2021/05/07 01:00:05;;;;;;;12.60;9.47;;;;;;;15.09;100.00;101198.22;5112047;28;20477;-76
2021/05/07 01:02:31;;;;;;;12.80;9.47;;;;;;;15.08;100.00;101193.06;5111938;28;20499;-71
2021/05/07 01:04:56;;;;;;;15.73;8.20;;;;;;;15.15;100.00;101189.81;5111655;28;20427;-76
2021/05/07 01:07:22;;;;;;;10.47;7.90;;;;;;;15.11;100.00;101183.06;5110907;28;20162;-71
2021/05/07 01:09:50;;;;;;;11.93;8.20;;;;;;;15.17;100.00;101184.38;5110530;28;20282;-75
2021/05/07 01:12:17;;;;;;;11.23;7.00;;;;;;;15.12;100.00;101190.06;5111165;28;20156;-76
2021/05/07 01:14:56;;;;;;;10.37;6.53;;;;;;;15.11;100.00;101177.78;5111744;28;20398;-75
2021/05/07 01:17:21;;;;;;;15.10;7.10;;;;;;;15.07;100.00;101172.84;5111789;28;20400;-76
2021/05/07 01:19:47;;;;;;;12.10;6.23;;;;;;;14.96;100.00;101173.69;5111584;28;20386;-77
2021/05/07 01:22:12;;;;;;;11.27;7.23;;;;;;;14.94;100.00;101170.31;5111758;28;20166;-76
2021/05/07 01:24:39;;;;;;;9.30;6.50;;;;;;;14.88;100.00;101176.09;5111784;28;20155;-77
2021/05/07 01:27:05;;;;;;;10.67;6.63;;;;;;;14.87;100.00;101175.25;5111566;28;20163;-75
2021/05/07 01:29:30;;;;;;;12.80;8.93;;;;;;;14.94;100.00;101180.91;5111599;28;20523;-73
2021/05/07 01:31:57;;;;;;;17.77;9.63;;;;;;;14.71;100.00;101180.88;5111571;28;20397;-77
2021/05/07 01:34:22;;;;;;;16.47;9.53;;;;;;;14.66;100.00;101179.53;5111814;28;20187;-75
2021/05/07 01:36:48;;;;;;;13.33;9.77;;;;;;;14.62;100.00;101181.59;5111796;28;20508;-76
2021/05/07 01:39:13;;;;;;;13.40;9.53;;;;;;;14.49;100.00;101188.78;5111485;28;20717;-75
2021/05/07 01:41:39;;;;;;;12.90;8.57;;;;;;;14.37;100.00;101185.25;5111772;28;20147;-75
2021/05/07 01:44:05;;;;;;;14.13;9.70;;;;;;;14.42;100.00;101188.34;5111369;28;20181;-72
2021/05/07 01:46:30;;;;;;;14.30;9.53;;;;;;;14.36;100.00;101185.38;5111584;28;20209;-75
2021/05/07 01:48:56;;;;;;;13.70;9.37;;;;;;;14.31;100.00;101176.94;5111408;28;20448;-75
2021/05/07 01:51:21;;;;;;;13.33;9.43;;;;;;;14.29;100.00;101177.06;5111399;28;20151;-77
2021/05/07 01:53:47;;;;;;;19.50;11.57;;;;;;;14.30;100.00;101172.59;5111448;28;20216;-76
2021/05/07 01:56:12;;;;;;;19.80;10.60;;;;;;;14.40;100.00;101176.22;5111817;28;20247;-75
2021/05/07 01:58:38;;;;;;;18.27;11.00;;;;;;;14.46;100.00;101172.31;5111167;28;20162;-77
2021/05/07 02:01:03;;;;;;;19.20;10.47;;;;;;;14.35;100.00;101173.06;5111535;28;20522;-78
2021/05/07 02:03:28;;;;;;;14.70;10.17;;;;;;;14.35;100.00;101167.78;5111308;28;20267;-77
2021/05/07 02:05:54;;;;;;;18.37;10.03;;;;;;;14.33;100.00;101173.19;5111195;28;20182;-76
2021/05/07 02:08:20;;;;;;;16.23;10.20;;;;;;;14.33;100.00;101175.84;5111393;28;20631;-74
2021/05/07 02:10:45;;;;;;;15.37;9.70;;;;;;;14.38;100.00;101178.16;5111485;28;20208;-75
2021/05/07 02:13:12;;;;;;;15.00;10.60;;;;;;;14.27;100.00;101175.47;5111298;28;20611;-73
2021/05/07 02:15:38;;;;;;;17.47;9.87;;;;;;;14.25;100.00;101177.38;5111388;28;20151;-70
2021/05/07 02:18:07;;;;;;;24.30;11.00;;;;;;;14.25;100.00;101178.22;5111452;28;20397;-73
2021/05/07 02:20:33;;;;;;;14.43;11.37;;;;;;;14.16;100.00;101178.91;5111210;28;20397;-75
2021/05/07 02:22:59;;;;;;;15.70;10.30;;;;;;;14.13;100.00;101182.66;5111278;28;20426;-71
2021/05/07 02:25:26;;;;;;;13.20;9.53;;;;;;;14.13;100.00;101181.78;5115065;28;20411;-73
2021/05/07 02:27:55;;;;;;;15.07;10.50;;;;;;;14.02;100.00;101177.28;5114666;28;20470;-76
2021/05/07 02:30:30;;;;;;;18.30;11.30;;;;;;;13.92;100.00;101181.59;5114653;28;20794;-75
2021/05/07 02:32:57;;;;;;;14.50;10.70;;;;;;;13.82;100.00;101186.69;5114628;28;20397;-75
2021/05/07 02:35:23;;;;;;;16.37;11.37;;;;;;;13.89;100.00;101187.91;5114474;28;20412;-76
2021/05/07 02:37:49;;;;;;;20.90;11.70;;;;;;;13.85;100.00;101191.75;5114675;28;20477;-77
2021/05/07 02:40:14;;;;;;;29.20;12.57;;;;;;;13.81;100.00;101197.38;5114548;28;20786;-73
2021/05/07 02:42:40;;;;;;;16.10;10.27;;;;;;;13.79;100.00;101194.84;5114421;28;20155;-77
2021/05/07 02:45:08;;;;;;;16.93;10.90;;;;;;;13.75;100.00;101184.59;5114249;28;20446;-77
2021/05/07 02:47:35;;;;;;;27.20;16.40;;;;;;;13.87;100.00;101181.91;5114232;28;20277;-73
2021/05/07 02:50:03;;;;;;;24.23;14.93;;;;;;;13.84;100.00;101187.44;5114332;28;20440;-72
2021/05/07 02:52:29;;;;;;;20.57;14.23;;;;;;;13.77;100.00;101190.63;5112994;28;20787;-76
2021/05/07 02:54:54;;;;;;;43.83;24.63;;;;;;;13.74;100.00;101193.47;5114271;28;20432;-76
2021/05/07 02:57:20;;;;;;;42.30;25.70;;;;;;;13.70;100.00;101195.50;5114237;28;20678;-76
2021/05/07 02:59:45;;;;;;;23.17;17.37;;;;;;;13.67;100.00;101194.88;5114323;28;20159;-76
2021/05/07 03:02:11;;;;;;;24.27;15.40;;;;;;;13.81;100.00;101194.72;5114155;28;20539;-77
2021/05/07 03:04:36;;;;;;;25.93;15.50;;;;;;;13.84;100.00;101192.72;5112695;28;20219;-75
2021/05/07 03:07:02;;;;;;;21.77;14.20;;;;;;;13.84;100.00;101189.22;5113919;28;20527;-76
2021/05/07 03:09:27;;;;;;;23.00;13.70;;;;;;;13.81;100.00;101189.44;5114005;28;20741;-76
2021/05/07 03:11:56;;;;;;;24.70;17.50;;;;;;;13.81;100.00;101184.16;5113814;28;20155;-76
2021/05/07 03:14:23;;;;;;;22.20;15.60;;;;;;;13.76;100.00;101189.78;5113679;28;20163;-75
2021/05/07 03:16:48;;;;;;;16.67;11.50;;;;;;;13.87;100.00;101192.47;5112602;28;20951;-75
2021/05/07 03:19:13;;;;;;;21.53;12.60;;;;;;;13.74;100.00;101188.19;5113803;28;20492;-75
2021/05/07 03:21:39;;;;;;;28.40;11.93;;;;;;;13.76;100.00;101191.59;5113492;28;20626;-76
2021/05/07 03:24:06;;;;;;;17.37;8.83;;;;;;;13.81;100.00;101195.56;5113581;28;20162;-76
2021/05/07 03:26:32;;;;;;;16.70;10.20;;;;;;;13.78;100.00;101200.25;5113800;28;20245;-76
2021/05/07 03:28:58;;;;;;;19.60;9.80;;;;;;;13.89;100.00;101192.38;5113451;28;20447;-76
2021/05/07 03:31:23;;;;;;;22.63;10.70;;;;;;;13.88;100.00;101190.69;5113309;28;20401;-73
2021/05/07 03:33:49;;;;;;;14.87;9.40;;;;;;;13.93;100.00;101193.00;5113058;28;20153;-76
2021/05/07 03:36:16;;;;;;;16.67;9.47;;;;;;;13.91;100.00;101193.13;5113472;28;20214;-75
2021/05/07 03:38:42;;;;;;;16.60;8.83;;;;;;;13.91;100.00;101195.75;5111909;28;20911;-70
2021/05/07 03:41:07;;;;;;;15.60;10.00;;;;;;;13.96;100.00;101198.03;5113295;28;20393;-75
2021/05/07 03:43:33;;;;;;;13.10;8.93;;;;;;;13.98;100.00;101190.84;5113501;28;20918;-75
2021/05/07 03:45:58;;;;;;;16.50;10.40;;;;;;;14.01;100.00;101194.13;5112915;28;20211;-76
2021/05/07 03:48:24;;;;;;;15.63;10.37;;;;;;;14.08;100.00;101186.56;5113222;28;20182;-75
2021/05/07 03:50:51;;;;;;;16.00;10.00;;;;;;;14.13;100.00;101193.22;5112978;28;20542;-76
2021/05/07 03:53:17;;;;;;;19.90;11.37;;;;;;;14.15;100.00;101195.75;5112837;28;20160;-77
2021/05/07 03:55:44;;;;;;;22.23;11.60;;;;;;;14.13;100.00;101203.78;5111678;28;20978;-75
2021/05/07 03:58:10;;;;;;;20.77;11.60;;;;;;;14.18;100.00;101202.59;5112836;28;20455;-72
2021/05/07 04:00:36;;;;;;;18.93;11.77;;;;;;;14.30;100.00;101206.97;5112826;28;20401;-75
2021/05/07 04:03:03;;;;;;;22.77;12.60;;;;;;;14.31;100.00;101200.72;5112833;28;20764;-72
2021/05/07 04:05:29;;;;;;;22.37;14.53;;;;;;;14.30;100.00;101196.41;5112879;28;20179;-74
2021/05/07 04:08:20;;;;;;;28.83;14.97;;;;;;;14.50;100.00;101197.53;5112741;28;20433;-77
2021/05/07 04:10:43;;;;;;;22.67;14.73;;;;;;;14.51;100.00;101191.28;5112320;28;20427;-76
2021/05/07 04:13:32;;;;;;;22.30;15.10;;;;;;;14.50;100.00;101185.16;5112687;28;20480;-74
2021/05/07 04:15:57;;;;;;;25.93;14.70;;;;;;;14.43;100.00;101184.78;5112470;28;20393;-75
2021/05/07 04:18:23;;;;;;;25.27;17.17;;;;;;;14.58;100.00;101176.66;5112491;28;20461;-76
2021/05/07 04:20:48;;;;;;;23.73;16.80;;;;;;;14.61;100.00;101173.78;5112028;27;20517;-76
2021/05/07 04:23:14;;;;;;;35.67;16.43;;;;;;;14.81;100.00;101167.81;5112428;28;20254;-77
2021/05/07 04:25:39;;;;;;;32.13;17.30;;;;;;;14.90;100.00;101176.81;5112360;28;20647;-76
2021/05/07 04:28:05;;;;;;;28.50;16.47;;;;;;;15.01;100.00;101175.97;5111565;28;20183;-76
2021/05/07 04:30:31;;;;;;;25.83;16.77;;;;;;;15.15;100.00;101179.22;5111046;28;20189;-76
2021/05/07 04:32:57;;;;;;;20.70;15.50;;;;;;;15.57;100.00;101170.59;5111958;28;20283;-73
2021/05/07 04:35:22;;;;;;;22.07;14.37;;;;;;;15.95;100.00;101175.50;5112057;28;20408;-75
2021/05/07 04:37:48;;;;;;;23.33;14.30;;;;;;;15.94;100.00;101171.13;5112296;28;20159;-74
2021/05/07 04:40:14;;;;;;;18.27;13.00;;;;;;;15.83;100.00;101179.97;5112062;28;20804;-71
2021/05/07 04:42:40;;;;;;;18.77;13.03;;;;;;;15.80;100.00;101186.38;5111935;28;20159;-72
2021/05/07 04:45:06;;;;;;;16.87;12.60;;;;;;;15.73;100.00;101184.34;5111251;28;20408;-72
2021/05/07 04:47:31;;;;;;;23.00;13.70;;;;;;;15.74;100.00;101181.56;5111201;28;20219;-73
2021/05/07 04:49:57;;;;;;;18.50;11.87;;;;;;;15.82;100.00;101187.09;5111310;27;20471;-73
2021/05/07 04:52:23;;;;;;;18.90;12.87;;;;;;;15.84;100.00;101183.47;5111602;28;20151;-75
2021/05/07 04:54:49;;;;;;;28.70;12.23;;;;;;;15.92;100.00;101187.16;5111590;28;20219;-75
2021/05/07 04:57:14;;;;;;;24.30;12.50;;;;;;;16.02;100.00;101190.75;5111356;28;20405;-72
2021/05/07 04:59:40;;;;;;;15.50;10.03;;;;;;;16.11;100.00;101198.91;5110885;28;20166;-76
2021/05/07 05:02:05;;;;;;;10.70;7.33;;;;;;;16.13;100.00;101207.59;5111942;28;20155;-75
2021/05/07 05:04:31;;;;;;;11.20;7.43;;;;;;;16.22;100.00;101205.00;5111546;28;20672;-75
2021/05/07 05:06:56;;;;;;;13.40;7.07;;;;;;;16.34;100.00;101205.81;5111357;28;20163;-75
2021/05/07 05:09:21;;;;;;;17.10;8.70;;;;;;;16.43;100.00;101201.53;5111546;28;20202;-75
2021/05/07 05:11:47;;;;;;;13.07;7.30;;;;;;;16.57;100.00;101198.56;5111734;28;20163;-72
2021/05/07 05:14:12;;;;;;;11.97;6.93;;;;;;;16.68;100.00;101193.16;5111612;28;20601;-74
2021/05/07 05:16:38;;;;;;;6.80;5.77;;;;;;;16.78;100.00;101195.94;5111711;28;20159;-76
2021/05/07 05:19:03;;;;;;;10.83;6.17;;;;;;;16.85;100.00;101205.03;5111875;28;20600;-76
2021/05/07 05:21:29;;;;;;;10.87;5.90;;;;;;;16.95;100.00;101197.97;5111802;28;20162;-72
2021/05/07 05:23:55;;;;;;;10.20;6.87;;;;;;;17.06;100.00;101195.22;5110053;28;20522;-75
2021/05/07 05:26:20;;;;;;;7.50;5.50;;;;;;;17.19;100.00;101200.31;5111518;28;20279;-72
2021/05/07 05:28:46;;;;;;;7.97;4.80;;;;;;;17.22;100.00;101204.50;5111447;28;20183;-73
2021/05/07 05:31:13;;;;;;;10.73;6.20;;;;;;;17.27;100.00;101191.66;5111308;28;20178;-76
2021/05/07 05:33:38;;;;;;;9.30;7.57;;;;;;;17.28;100.00;101202.16;5111313;28;20174;-76
2021/05/07 05:36:04;;;;;;;12.53;9.00;;;;;;;17.33;100.00;101196.44;5111097;28;20887;-77
2021/05/07 05:38:30;;;;;;;12.30;8.13;;;;;;;17.37;100.00;101193.38;5111216;28;20160;-75
2021/05/07 05:40:55;;;;;;;13.93;9.30;;;;;;;17.41;100.00;101192.13;5111334;28;20400;-71
2021/05/07 05:43:22;;;;;;;16.23;10.20;;;;;;;17.46;100.00;101205.88;5110188;28;20164;-76
2021/05/07 05:45:48;;;;;;;16.93;12.83;;;;;;;17.44;100.00;101205.13;5109933;28;20219;-75
2021/05/07 05:48:14;;;;;;;21.77;13.00;;;;;;;17.35;100.00;101218.41;5110396;28;20440;-76
2021/05/07 05:50:46;;;;;;;18.53;11.00;;;;;;;17.32;100.00;101224.84;5110807;28;20159;-75
2021/05/07 05:53:12;;;;;;;14.80;10.30;;;;;;;17.39;100.00;101233.94;5109827;28;20503;-72
2021/05/07 05:55:37;;;;;;;22.43;10.53;;;;;;;17.41;100.00;101225.84;5110984;28;20492;-76
2021/05/07 05:58:04;;;;;;;14.10;8.90;;;;;;;17.38;100.00;101234.06;5113142;28;20147;-76
2021/05/07 06:00:29;;;;;;;12.17;9.30;;;;;;;17.37;100.00;101227.91;5115024;28;20159;-75
2021/05/07 06:02:55;;;;;;;14.70;8.73;;;;;;;17.47;100.00;101228.78;5114923;28;20473;-75
2021/05/07 06:05:20;;;;;;;14.03;9.30;;;;;;;17.51;100.00;101223.19;5115106;28;20235;-76
2021/05/07 06:07:46;;;;;;;18.13;9.60;;;;;;;17.59;100.00;101228.69;5114892;28;20234;-73
2021/05/07 06:10:14;;;;;;;14.40;9.97;;;;;;;17.66;100.00;101227.16;5114631;28;20191;-71
2021/05/07 06:12:44;;;;;;;16.93;9.90;;;;;;;17.71;100.00;101236.44;5114822;28;20158;-74
2021/05/07 06:15:11;;;;;;;13.30;8.97;;;;;;;17.85;100.00;101226.41;5113439;28;20783;-75
2021/05/07 06:17:37;;;;;;;13.23;7.77;;;;;;;17.93;100.00;101227.38;5114513;28;20389;-74
2021/05/07 06:20:05;;;;;;;13.53;8.37;;;;;;;18.00;100.00;101230.34;5114846;27;20404;-76
2021/05/07 06:22:34;;;;;;;13.80;6.77;;;;;;;18.10;100.00;101222.38;5114569;28;20396;-71
2021/05/07 06:25:01;;;;;;;7.97;5.67;;;;;;;18.23;100.00;101209.63;5114409;28;20386;-71
2021/05/07 06:27:27;;;;;;;8.80;6.23;;;;;;;18.32;100.00;101214.09;5114700;28;20389;-75
2021/05/07 06:29:52;;;;;;;8.10;5.63;;;;;;;18.47;100.00;101202.03;5114345;28;21000;-77
2021/05/07 06:32:18;;;;;;;8.50;5.90;;;;;;;18.60;100.00;101203.56;5113805;28;20231;-77
2021/05/07 06:34:44;;;;;;;6.70;5.30;;;;;;;18.69;100.00;101200.91;5113752;28;20585;-77
2021/05/07 06:37:10;;;;;;;12.80;6.27;;;;;;;18.85;100.00;101192.31;5112559;28;20163;-77
2021/05/07 06:39:36;;;;;;;6.50;4.50;;;;;;;18.92;100.00;101182.78;5113391;28;20439;-74
2021/05/07 06:42:02;;;;;;;6.80;4.20;;;;;;;19.03;100.00;101185.25;5114160;28;20159;-77
2021/05/07 06:44:29;;;;;;;5.57;4.33;;;;;;;19.15;100.00;101169.09;5113860;28;20487;-76
2021/05/07 06:46:54;;;;;;;5.43;4.13;;;;;;;19.25;100.00;101169.88;5113579;28;20457;-73
2021/05/07 06:49:21;;;;;;;7.90;4.00;;;;;;;19.32;100.00;101169.13;5113944;28;20455;-71
2021/05/07 06:51:47;;;;;;;6.30;4.00;;;;;;;19.40;100.00;101158.56;5113952;28;20162;-76
2021/05/07 06:54:13;;;;;;;7.10;5.00;;;;;;;19.53;100.00;101171.53;5113836;28;20393;-76
2021/05/07 06:56:39;;;;;;;6.70;4.40;;;;;;;19.66;100.00;101164.03;5113606;28;20614;-76
2021/05/07 06:59:08;;;;;;;6.27;3.90;;;;;;;19.84;100.00;101160.53;5113600;27;20535;-77
2021/05/07 07:01:37;;;;;;;5.80;3.67;;;;;;;19.91;100.00;101161.63;5113634;28;20205;-76
2021/05/07 07:04:04;;;;;;;7.47;4.80;;;;;;;20.06;100.00;101160.09;5113825;28;20473;-76
2021/05/07 07:06:31;;;;;;;13.60;4.40;;;;;;;20.19;100.00;101157.03;5113552;28;20428;-74
2021/05/07 07:08:57;;;;;;;5.20;3.20;;;;;;;20.17;100.00;101159.00;5112654;28;20460;-77
2021/05/07 07:11:22;;;;;;;5.77;3.80;;;;;;;20.30;100.00;101155.94;5112458;28;20417;-76
2021/05/07 07:13:48;;;;;;;9.90;2.93;;;;;;;20.31;100.00;101150.44;5113562;28;20584;-74
2021/05/07 07:16:17;;;;;;;6.43;4.50;;;;;;;20.34;100.00;101152.81;5113269;28;20163;-76
2021/05/07 07:18:43;;;;;;;4.93;3.30;;;;;;;20.33;100.00;101155.59;5113344;28;20159;-73
2021/05/07 07:21:09;;;;;;;5.50;3.40;;;;;;;20.34;100.00;101155.47;5113413;28;20454;-76
2021/05/07 07:23:36;;;;;;;6.50;3.77;;;;;;;20.41;100.00;101153.03;5112561;28;20395;-76
2021/05/07 07:26:02;;;;;;;4.27;3.00;;;;;;;20.42;100.00;101160.03;5111408;28;20420;-76
2021/05/07 07:28:28;;;;;;;6.70;3.50;;;;;;;20.44;100.00;101155.41;5111992;28;20997;-73
2021/05/07 07:30:53;;;;;;;4.60;3.47;;;;;;;20.54;100.00;101153.47;5113209;28;20466;-74
2021/05/07 07:33:19;;;;;;;11.80;4.03;;;;;;;20.66;100.00;101149.53;5112829;28;20244;-77
2021/05/07 07:35:44;;;;;;;6.13;4.33;;;;;;;20.69;100.00;101145.72;5112955;28;20233;-75
2021/05/07 07:38:10;;;;;;;8.80;4.00;;;;;;;20.77;100.00;101138.56;5112875;28;20224;-72
2021/05/07 07:40:35;;;;;;;5.20;4.40;;;;;;;20.84;100.00;101141.44;5112427;28;20163;-76
2021/05/07 07:43:01;;;;;;;5.87;4.30;;;;;;;20.94;100.00;101138.69;5112566;28;20235;-75
2021/05/07 07:45:26;;;;;;;5.53;3.83;;;;;;;20.98;100.00;101140.00;5112484;28;20163;-77
2021/05/07 07:47:52;;;;;;;8.43;4.60;;;;;;;20.95;100.00;101137.69;5112569;28;20155;-74
2021/05/07 07:50:17;;;;;;;5.93;3.83;;;;;;;20.91;100.00;101139.81;5112362;28;20200;-73
2021/05/07 07:52:43;;;;;;;5.03;3.50;;;;;;;20.89;100.00;101136.47;5112721;28;20163;-75
2021/05/07 07:55:09;;;;;;;6.80;4.30;;;;;;;20.97;100.00;101133.84;5112432;28;20151;-75
2021/05/07 07:57:35;;;;;;;9.60;5.33;;;;;;;20.99;100.00;101131.00;5112160;28;20163;-74
2021/05/07 08:00:00;;;;;;;9.43;4.73;;;;;;;21.00;100.00;101128.16;5112288;28;20404;-72
2021/05/07 08:02:26;;;;;;;7.33;4.10;;;;;;;20.64;100.00;101140.03;5112226;28;20630;-75
2021/05/07 08:04:53;;;;;;;6.13;5.00;;;;;;;20.76;100.00;101133.41;5112344;28;20324;-75
2021/05/07 08:07:19;;;;;;;6.70;4.63;;;;;;;20.77;100.00;101127.06;5112611;28;20397;-75
2021/05/07 08:09:45;;;;;;;8.67;4.90;;;;;;;20.76;100.00;101131.56;5110261;28;20849;-79
2021/05/07 08:12:11;;;;;;;7.03;4.37;;;;;;;20.80;100.00;101131.25;5112137;28;20155;-79
2021/05/07 08:14:36;;;;;;;4.67;4.07;;;;;;;20.86;100.00;101126.13;5112516;28;20167;-78
2021/05/07 08:17:03;;;;;;;6.00;4.43;;;;;;;20.91;100.00;101120.28;5112486;28;20381;-78
2021/05/07 08:19:29;;;;;;;7.50;5.00;;;;;;;20.87;100.00;101121.59;5112283;28;20581;-79
2021/05/07 08:21:54;;;;;;;8.20;4.97;;;;;;;20.98;100.00;101122.16;5111779;28;20397;-78
2021/05/07 08:24:23;;;;;;;5.73;4.40;;;;;;;21.08;100.00;101118.50;5111420;28;20578;-79
2021/05/07 08:26:49;;;;;;;10.87;5.20;;;;;;;21.22;100.00;101117.88;5111949;28;20569;-75
2021/05/07 08:29:15;;;;;;;8.40;4.30;;;;;;;21.37;100.00;101113.63;5111526;28;20445;-75
2021/05/07 08:31:41;;;;;;;7.43;5.50;;;;;;;21.22;100.00;101110.69;5111847;28;20405;-75
2021/05/07 08:34:06;;;;;;;7.60;5.57;;;;;;;21.25;100.00;101109.56;5112062;28;20235;-76
2021/05/07 08:36:32;;;;;;;7.20;4.63;;;;;;;21.23;100.00;101103.50;5111603;28;20198;-76
2021/05/07 08:38:58;;;;;;;10.90;5.67;;;;;;;21.31;100.00;101101.75;5111991;28;20186;-76
2021/05/07 08:41:23;;;;;;;10.27;5.13;;;;;;;21.37;100.00;101099.41;5111723;28;20183;-74
2021/05/07 08:43:52;;;;;;;7.60;4.80;;;;;;;21.42;100.00;101097.09;5111849;28;20186;-78
2021/05/07 08:46:18;;;;;;;9.00;4.70;;;;;;;21.48;100.00;101088.41;5111712;28;20211;-79
2021/05/07 08:48:44;;;;;;;13.47;4.93;;;;;;;21.60;100.00;101100.44;5111847;28;20452;-78
2021/05/07 08:51:10;;;;;;;6.93;5.03;;;;;;;21.66;100.00;101097.13;5110641;28;20937;-77
2021/05/07 08:53:36;;;;;;;8.90;4.03;;;;;;;21.75;100.00;101085.41;5111802;28;20397;-76
2021/05/07 08:56:04;;;;;;;9.13;5.07;;;;;;;21.76;100.00;101080.91;5111582;28;20825;-78
2021/05/07 08:58:30;;;;;;;6.10;4.63;;;;;;;21.98;100.00;101085.56;5111339;28;20923;-78
2021/05/07 09:00:56;;;;;;;6.40;4.83;;;;;;;21.95;100.00;101085.94;5111556;28;20390;-78
2021/05/07 09:03:22;;;;;;;7.73;4.20;;;;;;;21.99;100.00;101078.38;5111457;28;20155;-74
2021/05/07 09:05:47;;;;;;;7.20;4.67;;;;;;;21.92;100.00;101088.13;5110990;28;20501;-79
2021/05/07 09:08:13;;;;;;;7.77;4.80;;;;;;;22.07;100.00;101079.25;5110278;28;20167;-77
2021/05/07 09:10:46;;;;;;;10.90;4.40;;;;;;;22.28;100.00;101076.03;5111296;28;20154;-76
2021/05/07 09:13:14;;;;;;;8.90;5.60;;;;;;;22.27;100.00;101077.03;5110632;28;20185;-78
2021/05/07 09:15:44;;;;;;;9.43;4.83;;;;;;;22.47;100.00;101079.34;5110584;28;20404;-77
2021/05/07 09:18:16;;;;;;;8.80;5.00;;;;;;;22.61;100.00;101071.44;5110399;28;20397;-77
2021/05/07 09:20:48;;;;;;;5.90;4.13;;;;;;;22.95;100.00;101073.00;5110757;28;20827;-76
2021/05/07 09:23:15;;;;;;;9.97;5.27;;;;;;;23.11;100.00;101061.34;5110804;28;20397;-76
2021/05/07 09:25:42;;;;;;;8.93;5.40;;;;;;;23.19;100.00;101070.19;5111114;28;20964;-76
2021/05/07 09:28:10;;;;;;;10.93;5.03;;;;;;;22.93;100.00;101062.47;5110792;28;20784;-72
2021/05/07 09:30:36;;;;;;;7.73;4.70;;;;;;;22.91;100.00;101066.34;5111093;28;20909;-76
2021/05/07 09:33:09;;;;;;;7.93;5.10;;;;;;;22.94;100.00;101061.44;5112898;28;20402;-74
2021/05/07 09:35:36;;;;;;;6.60;4.70;;;;;;;23.05;100.00;101045.97;5114620;28;20445;-71
2021/05/07 09:38:07;;;;;;;10.60;4.50;;;;;;;23.08;100.00;101048.31;5115095;28;20883;-75
2021/05/07 09:40:34;;;;;;;10.67;5.17;;;;;;;23.09;100.00;101045.44;5114781;28;20393;-74
2021/05/07 09:43:20;;;;;;;6.40;4.83;;;;;;;23.03;100.00;101043.47;5114250;28;20403;-72
2021/05/07 09:45:51;;;;;;;15.13;5.30;;;;;;;22.91;100.00;101044.91;5114521;27;20490;-72
2021/05/07 09:48:21;;;;;;;6.00;4.53;;;;;;;22.88;100.00;101040.69;5114860;28;20417;-75
2021/05/07 09:50:48;;;;;;;6.50;4.80;;;;;;;23.00;100.00;101025.06;5114588;28;20401;-74
2021/05/07 09:53:20;;;;;;;6.27;4.43;;;;;;;23.14;100.00;101031.53;5114210;27;20397;-73
2021/05/07 09:55:50;;;;;;;8.23;4.97;;;;;;;23.45;100.00;101020.75;5112722;28;20914;-73
2021/05/07 09:58:16;;;;;;;7.07;4.60;;;;;;;23.66;100.00;101028.16;5114046;28;20401;-73
2021/05/07 10:00:42;;;;;;;6.87;4.97;;;;;;;23.59;100.00;101028.00;5112625;28;20416;-73
2021/05/07 10:03:08;;;;;;;7.87;5.03;;;;;;;23.45;100.00;101029.63;5114369;28;20449;-76
2021/05/07 10:05:35;;;;;;;12.93;7.20;;;;;;;23.04;100.00;101021.00;5113658;27;20190;-74
2021/05/07 10:08:01;;;;;;;7.47;4.50;;;;;;;22.97;100.00;101017.38;5113477;27;20420;-71
2021/05/07 10:10:32;;;;;;;6.40;5.00;;;;;;;22.74;100.00;101011.94;5112262;28;20425;-73
2021/05/07 10:13:00;;;;;;;7.50;5.20;;;;;;;22.84;100.00;101017.94;5114228;27;20163;-71
2021/05/07 10:15:37;;;;;;;6.20;4.73;;;;;;;22.87;100.00;101012.22;5113928;28;20702;-72
2021/05/07 10:18:04;;;;;;;9.63;4.80;;;;;;;22.89;100.00;101010.19;5113360;28;20417;-72
2021/05/07 10:20:35;;;;;;;9.63;5.27;;;;;;;22.88;100.00;101007.72;5107866;28;20488;-69
2021/05/07 10:23:19;;;;;;;6.87;4.93;;;;;;;23.30;100.00;101009.97;5101386;28;20413;-72
2021/05/07 10:26:09;;;;;;;7.53;5.23;;;;;;;23.30;100.00;101001.91;5093624;28;20402;-72
2021/05/07 10:28:51;;;;;;;8.00;5.20;;;;;;;23.25;100.00;100996.25;5104348;28;20810;-69
2021/05/07 10:31:19;;;;;;;12.33;5.00;;;;;;;23.17;100.00;101005.19;5097108;28;20794;-69
2021/05/07 10:33:59;;;;;;;5.17;4.47;;;;;;;23.27;100.00;100996.88;5103648;27;20421;-72
2021/05/07 10:36:49;;;;;;;13.40;11.20;;;;;;;23.40;100.00;100998.97;5111700;28;20432;-69
2021/05/07 10:39:16;;;;;;;6.63;5.00;;;;;;;23.13;100.00;101000.38;5108261;27;20474;-76
2021/05/07 10:41:42;;;;;;;7.93;5.83;;;;;;;23.12;100.00;101004.88;5111563;28;20454;-70
2021/05/07 10:44:18;;;;;;;12.10;5.43;;;;;;;23.16;100.00;101000.00;5112922;28;20412;-73
2021/05/07 10:46:45;;;;;;;5.87;4.60;;;;;;;23.31;100.00;100995.53;5113289;28;20460;-73
2021/05/07 10:49:11;;;;;;;10.07;5.13;;;;;;;23.40;100.00;101005.19;5115707;27;20540;-71
2021/05/07 10:51:37;;;;;;;11.07;5.47;;;;;;;23.51;100.00;100985.16;5114580;27;20824;-69
2021/05/07 10:54:14;;;;;;;5.10;4.30;;;;;;;23.72;100.00;100984.47;5095858;28;20476;-69
2021/05/07 10:56:41;;;;;;;6.43;4.63;;;;;;;23.95;100.00;100973.66;5110570;28;20957;-71
2021/05/07 10:59:14;;;;;;;10.33;5.40;;;;;;;24.23;100.00;100969.34;5092948;28;20428;-70
2021/05/07 11:01:41;;;;;;;10.80;4.13;;;;;;;24.35;100.00;100957.13;5092302;28;20418;-75
2021/05/07 11:04:12;;;;;;;7.93;5.07;;;;;;;24.53;100.00;100950.53;5099780;28;20424;-83
2021/05/07 11:06:45;;;;;;;12.47;5.47;;;;;;;24.33;100.00;100939.53;5099348;27;20971;-75
2021/05/07 11:09:23;;;;;;;8.20;4.47;;;;;;;24.34;100.00;100946.59;5112875;27;20964;-77